Time;durP1;ratioP1;P1;durP2;ratioP2;P2;SDS_P1;SDS_P2;PMS_P1;PMS_P2;Temp;Humidity;BMP_temperature;BMP_pressure;BME280_temperature;BME280_humidity;BME280_pressure;Samples;Min_cycle;Max_cycle;Signal;HPM_P1;HPM_P2
2023/12/24 00:02:04;;;;;;;0.10;0.10;;;17.20;50.00;;;;;;5147505;27;45268;-64
2023/12/24 00:04:31;;;;;;;0.50;0.35;;;17.20;50.00;;;;;;5147513;27;45338;-64
2023/12/24 00:06:59;;;;;;;0.25;0.25;;;17.20;50.10;;;;;;5148235;27;45361;-65
2023/12/24 00:09:26;;;;;;;0.20;0.20;;;17.20;50.10;;;;;;5150932;27;48691;-64
2023/12/24 00:11:53;;;;;;;0.40;0.17;;;17.20;50.20;;;;;;5150934;27;45337;-64
2023/12/24 00:14:20;;;;;;;0.20;0.20;;;17.20;50.20;;;;;;5151054;27;45190;-64
2023/12/24 00:16:46;;;;;;;0.30;0.30;;;17.10;50.20;;;;;;5150964;27;45408;-66
2023/12/24 00:19:13;;;;;;;0.20;0.20;;;17.10;50.20;;;;;;5150495;27;46368;-64
2023/12/24 00:21:42;;;;;;;0.22;0.22;;;17.10;50.20;;;;;;5151488;27;45401;-64
2023/12/24 00:24:10;;;;;;;0.30;0.25;;;17.10;50.30;;;;;;5171844;27;45320;-65
2023/12/24 00:26:37;;;;;;;0.20;0.20;;;17.10;50.30;;;;;;5172172;27;45308;-64
2023/12/24 00:29:05;;;;;;;0.08;0.08;;;17.00;50.20;;;;;;5171588;27;46385;-64
2023/12/24 00:31:32;;;;;;;0.20;0.20;;;17.10;50.30;;;;;;5171769;27;45275;-64
2023/12/24 00:33:59;;;;;;;0.10;0.10;;;17.00;50.30;;;;;;5171815;27;45284;-64
2023/12/24 00:36:26;;;;;;;0.15;0.15;;;17.00;50.40;;;;;;5171842;27;45440;-64
2023/12/24 00:38:53;;;;;;;0.10;0.10;;;17.00;50.40;;;;;;5171239;27;45544;-64
2023/12/24 00:41:21;;;;;;;0.25;0.25;;;17.00;50.40;;;;;;5171413;27;45383;-64
2023/12/24 00:43:48;;;;;;;0.20;0.20;;;17.00;50.50;;;;;;5171598;27;45263;-64
2023/12/24 00:46:15;;;;;;;0.10;0.10;;;17.00;50.50;;;;;;5171800;27;45200;-62
2023/12/24 00:48:43;;;;;;;0.10;0.10;;;16.90;50.50;;;;;;5171182;27;45364;-62
2023/12/24 00:51:10;;;;;;;0.10;0.10;;;16.90;51.10;;;;;;5152897;27;45392;-63
2023/12/24 00:53:37;;;;;;;0.10;0.10;;;16.90;50.60;;;;;;5150576;27;45291;-64
2023/12/24 00:56:04;;;;;;;0.13;0.13;;;16.90;50.60;;;;;;5150497;27;45264;-63
2023/12/24 00:58:32;;;;;;;0.20;0.20;;;16.90;50.60;;;;;;5149996;27;45407;-63
2023/12/24 01:00:59;;;;;;;0.50;0.35;;;16.80;50.60;;;;;;5150411;27;45358;-62
2023/12/24 01:03:26;;;;;;;0.03;0.03;;;16.80;50.60;;;;;;5149898;27;45263;-62
2023/12/24 01:05:52;;;;;;;0.25;0.25;;;16.80;50.60;;;;;;5150257;27;45255;-62
2023/12/24 01:08:19;;;;;;;0.22;0.22;;;16.80;50.70;;;;;;5150102;27;45906;-63
2023/12/24 01:10:46;;;;;;;0.20;0.20;;;16.80;50.70;;;;;;5147325;27;45514;-62
2023/12/24 01:13:18;;;;;;;0.20;0.20;;;16.80;50.70;;;;;;5150390;27;45268;-63
2023/12/24 01:15:47;;;;;;;0.30;0.30;;;16.80;50.70;;;;;;5150177;27;45224;-63
2023/12/24 01:18:14;;;;;;;0.20;0.20;;;16.80;50.80;;;;;;5149570;27;46912;-62
2023/12/24 01:20:40;;;;;;;0.17;0.17;;;16.70;50.70;;;;;;5149975;27;45426;-62
2023/12/24 01:23:07;;;;;;;0.32;0.32;;;16.70;50.70;;;;;;5163723;27;45313;-62
2023/12/24 01:25:34;;;;;;;0.22;0.22;;;16.70;50.80;;;;;;5171189;27;45232;-62
2023/12/24 01:28:01;;;;;;;0.40;0.40;;;16.70;50.80;;;;;;5171063;27;45416;-63
2023/12/24 01:30:28;;;;;;;0.30;0.30;;;16.70;50.80;;;;;;5170889;27;45257;-65
2023/12/24 01:32:56;;;;;;;0.30;0.30;;;16.70;50.80;;;;;;5170886;27;45399;-64
2023/12/24 01:35:23;;;;;;;0.40;0.10;;;16.70;50.80;;;;;;5170970;27;45389;-63
2023/12/24 01:37:50;;;;;;;0.22;0.20;;;16.70;50.90;;;;;;5170627;27;47539;-63
2023/12/24 01:40:17;;;;;;;0.20;0.17;;;16.70;50.90;;;;;;5170434;27;45344;-63
2023/12/24 01:42:44;;;;;;;0.20;0.20;;;16.70;51.50;;;;;;5170390;27;45440;-63
2023/12/24 01:45:11;;;;;;;0.20;0.20;;;16.60;50.90;;;;;;5170876;27;45446;-63
2023/12/24 01:47:38;;;;;;;0.10;0.10;;;16.60;50.90;;;;;;5169989;27;45247;-63
2023/12/24 01:50:07;;;;;;;0.20;0.13;;;16.60;50.90;;;;;;5161501;27;45249;-62
2023/12/24 01:52:34;;;;;;;0.30;0.20;;;16.60;50.90;;;;;;5149576;27;45366;-62
2023/12/24 01:55:01;;;;;;;0.20;0.20;;;16.60;51.00;;;;;;5149656;27;45448;-65
2023/12/24 01:57:29;;;;;;;0.22;0.20;;;16.50;50.90;;;;;;5149518;27;46443;-64
2023/12/24 01:59:55;;;;;;;0.30;0.30;;;16.60;51.00;;;;;;5149531;27;45362;-63
2023/12/24 02:02:22;;;;;;;0.10;0.10;;;16.50;50.90;;;;;;5149365;27;45356;-63
2023/12/24 02:04:49;;;;;;;0.20;0.20;;;16.50;51.60;;;;;;5149333;27;45432;-63
2023/12/24 02:07:17;;;;;;;0.30;0.28;;;16.50;51.00;;;;;;5149173;27;46281;-63
2023/12/24 02:09:44;;;;;;;0.30;0.30;;;16.50;51.00;;;;;;5149167;27;45258;-64
2023/12/24 02:12:11;;;;;;;0.10;0.10;;;16.50;51.10;;;;;;5149156;27;45283;-63
2023/12/24 02:14:38;;;;;;;0.20;0.20;;;16.50;51.10;;;;;;5149365;27;45460;-64
2023/12/24 02:17:05;;;;;;;0.13;0.13;;;16.50;51.10;;;;;;5148759;27;45587;-64
2023/12/24 02:19:32;;;;;;;0.25;0.25;;;16.50;51.10;;;;;;5148687;27;45449;-64
2023/12/24 02:22:00;;;;;;;0.25;0.22;;;16.50;51.10;;;;;;5152281;27;45208;-64
2023/12/24 02:24:27;;;;;;;0.20;0.20;;;16.50;51.10;;;;;;5170038;27;45260;-64
2023/12/24 02:26:58;;;;;;;0.10;0.10;;;16.50;51.20;;;;;;5169173;27;46367;-63
2023/12/24 02:29:27;;;;;;;0.20;0.20;;;16.50;51.20;;;;;;5168966;27;45319;-64
2023/12/24 02:31:59;;;;;;;0.10;0.10;;;16.40;51.10;;;;;;5169962;27;45377;-64
2023/12/24 02:34:25;;;;;;;0.10;0.10;;;16.40;51.10;;;;;;5169717;27;45567;-63
2023/12/24 02:36:52;;;;;;;0.20;0.20;;;16.40;51.20;;;;;;5169515;27;45259;-64
2023/12/24 02:39:20;;;;;;;0.17;0.17;;;16.40;51.20;;;;;;5169152;27;45470;-63
2023/12/24 02:41:47;;;;;;;0.35;0.20;;;16.40;51.20;;;;;;5169498;27;45369;-64
2023/12/24 02:44:14;;;;;;;0.10;0.10;;;16.40;51.20;;;;;;5169687;27;45305;-64
2023/12/24 02:46:41;;;;;;;0.32;0.20;;;16.40;51.20;;;;;;5169253;27;45256;-63
2023/12/24 02:49:08;;;;;;;0.20;0.20;;;16.40;51.20;;;;;;5168450;27;45387;-63
2023/12/24 02:51:34;;;;;;;0.30;0.20;;;16.30;51.10;;;;;;5148606;27;45316;-63
2023/12/24 02:54:01;;;;;;;0.47;0.30;;;16.40;51.20;;;;;;5148878;27;45395;-64
2023/12/24 02:56:36;;;;;;;0.30;0.30;;;16.40;51.20;;;;;;5148294;27;45254;-63
2023/12/24 02:59:03;;;;;;;0.20;0.20;;;16.40;51.20;;;;;;5148365;27;45340;-63
2023/12/24 03:01:29;;;;;;;0.20;0.20;;;16.30;51.20;;;;;;5148315;27;45346;-64
2023/12/24 03:03:56;;;;;;;0.30;0.17;;;16.30;51.10;;;;;;5148521;27;45404;-63
2023/12/24 03:06:23;;;;;;;0.22;0.22;;;16.30;51.20;;;;;;5148010;27;45533;-63
2023/12/24 03:08:50;;;;;;;0.30;0.25;;;16.30;51.20;;;;;;5148178;27;45375;-63
2023/12/24 03:11:17;;;;;;;1.08;0.40;;;16.30;51.20;;;;;;5148329;27;45425;-63
2023/12/24 03:13:45;;;;;;;0.17;0.17;;;16.30;51.20;;;;;;5148360;27;45343;-63
2023/12/24 03:16:11;;;;;;;0.10;0.10;;;16.30;51.20;;;;;;5147984;27;45211;-64
2023/12/24 03:18:38;;;;;;;0.25;0.25;;;16.30;51.30;;;;;;5147993;27;45426;-63
2023/12/24 03:21:05;;;;;;;0.10;0.10;;;16.30;51.20;;;;;;5148133;27;45470;-63
2023/12/24 03:23:32;;;;;;;0.22;0.22;;;16.30;51.30;;;;;;5165112;27;45542;-63
2023/12/24 03:25:59;;;;;;;0.40;0.30;;;16.30;51.30;;;;;;5168794;27;46362;-63
2023/12/24 03:28:26;;;;;;;0.30;0.30;;;16.20;51.20;;;;;;5168758;27;45234;-63
2023/12/24 03:30:54;;;;;;;0.17;0.17;;;16.20;51.20;;;;;;5169016;27;45207;-63
2023/12/24 03:33:22;;;;;;;0.20;0.15;;;16.20;51.30;;;;;;5168834;27;45531;-63
2023/12/24 03:35:49;;;;;;;0.28;0.13;;;16.20;51.90;;;;;;5168369;27;46618;-63
2023/12/24 03:38:17;;;;;;;0.20;0.20;;;16.20;51.30;;;;;;5168585;27;45289;-63
2023/12/24 03:40:43;;;;;;;0.15;0.15;;;16.20;51.20;;;;;;5168898;27;45445;-63
2023/12/24 03:43:10;;;;;;;0.10;0.10;;;16.20;51.30;;;;;;5172536;27;45539;-64
2023/12/24 03:45:37;;;;;;;0.10;0.10;;;16.20;51.30;;;;;;5171961;27;46447;-64
2023/12/24 03:48:07;;;;;;;0.17;0.17;;;16.20;51.30;;;;;;5172497;27;45294;-63
2023/12/24 03:50:33;;;;;;;0.30;0.20;;;16.20;51.40;;;;;;5159005;27;45561;-64
2023/12/24 03:53:00;;;;;;;0.90;0.17;;;16.20;51.40;;;;;;5151435;27;45391;-63
2023/12/24 03:55:27;;;;;;;0.22;0.22;;;16.20;51.40;;;;;;5150783;27;46211;-63
2023/12/24 03:57:54;;;;;;;0.20;0.20;;;16.20;51.40;;;;;;5151223;27;45277;-63
2023/12/24 04:00:21;;;;;;;0.25;0.25;;;16.20;51.40;;;;;;5151412;27;45208;-63
2023/12/24 04:02:48;;;;;;;0.20;0.20;;;16.20;51.40;;;;;;5151189;27;45362;-63
2023/12/24 04:05:17;;;;;;;0.30;0.30;;;16.20;51.40;;;;;;5150753;27;45526;-63
2023/12/24 04:07:43;;;;;;;0.20;0.20;;;16.20;51.50;;;;;;5151133;27;45566;-63
2023/12/24 04:10:10;;;;;;;0.60;0.30;;;16.20;51.50;;;;;;5151314;27;45234;-63
2023/12/24 04:12:37;;;;;;;0.32;0.30;;;16.20;51.40;;;;;;5151137;27;45406;-64
2023/12/24 04:15:05;;;;;;;0.10;0.10;;;16.30;51.40;;;;;;5150692;27;45359;-63
2023/12/24 04:17:34;;;;;;;0.10;0.10;;;16.30;51.20;;;;;;5150740;27;45290;-63
2023/12/24 04:20:01;;;;;;;0.10;0.10;;;16.40;51.10;;;;;;5150907;27;45289;-62
2023/12/24 04:22:29;;;;;;;0.10;0.10;;;16.40;51.00;;;;;;5158562;27;45374;-63
2023/12/24 04:24:56;;;;;;;0.20;0.20;;;16.50;50.80;;;;;;5171350;27;46397;-63
2023/12/24 04:27:23;;;;;;;0.20;0.20;;;16.60;50.60;;;;;;5171513;27;45325;-64
2023/12/24 04:29:49;;;;;;;0.05;0.05;;;16.70;50.40;;;;;;5171968;27;45252;-64
2023/12/24 04:32:17;;;;;;;0.30;0.30;;;16.90;50.20;;;;;;5171794;27;45412;-63
2023/12/24 04:34:43;;;;;;;1.15;0.25;;;17.00;49.90;;;;;;5171430;27;46534;-64
2023/12/24 04:37:10;;;;;;;0.10;0.10;;;17.10;49.80;;;;;;5171229;27;45457;-63
2023/12/24 04:39:38;;;;;;;0.13;0.13;;;17.20;49.60;;;;;;5171350;27;45328;-63
2023/12/24 04:42:06;;;;;;;0.30;0.30;;;17.20;49.30;;;;;;5171489;27;45385;-63
2023/12/24 04:44:33;;;;;;;0.10;0.10;;;17.30;49.20;;;;;;5171228;27;46703;-63
2023/12/24 04:46:59;;;;;;;0.20;0.20;;;17.40;49.10;;;;;;5171300;27;45405;-63
2023/12/24 04:49:26;;;;;;;0.20;0.20;;;17.50;48.90;;;;;;5167742;27;45388;-63
2023/12/24 04:51:53;;;;;;;0.13;0.13;;;17.50;48.80;;;;;;5150483;27;45434;-63
2023/12/24 04:54:20;;;;;;;0.70;0.20;;;17.60;48.70;;;;;;5149602;27;46671;-63
2023/12/24 04:56:48;;;;;;;0.20;0.20;;;17.70;48.60;;;;;;5149943;27;45244;-64
2023/12/24 04:59:15;;;;;;;0.20;0.20;;;17.70;48.50;;;;;;5150189;27;45361;-63
2023/12/24 05:01:42;;;;;;;0.20;0.20;;;17.70;48.40;;;;;;5150340;27;45323;-63
2023/12/24 05:04:09;;;;;;;0.17;0.17;;;17.80;48.40;;;;;;5149873;27;46402;-64
2023/12/24 05:06:36;;;;;;;0.35;0.30;;;17.80;48.30;;;;;;5150058;27;45244;-64
2023/12/24 05:09:03;;;;;;;0.10;0.10;;;17.90;48.30;;;;;;5150189;27;45313;-64
2023/12/24 05:11:29;;;;;;;0.20;0.10;;;17.90;48.20;;;;;;5150277;27;45357;-63
2023/12/24 05:13:58;;;;;;;0.20;0.20;;;17.90;48.10;;;;;;5149681;27;46714;-63
2023/12/24 05:16:24;;;;;;;0.20;0.20;;;18.00;48.10;;;;;;5149702;27;45206;-63
2023/12/24 05:18:51;;;;;;;0.25;0.25;;;18.00;48.10;;;;;;5149957;27;45323;-64
2023/12/24 05:21:20;;;;;;;0.20;0.20;;;18.00;48.00;;;;;;5150049;27;45394;-63
2023/12/24 05:23:47;;;;;;;0.30;0.30;;;18.00;48.00;;;;;;5168785;27;46439;-63
2023/12/24 05:26:13;;;;;;;0.20;0.20;;;18.10;47.90;;;;;;5170554;27;45459;-63
2023/12/24 05:28:40;;;;;;;0.10;0.10;;;18.10;47.80;;;;;;5170759;27;45352;-63
2023/12/24 05:31:08;;;;;;;0.20;0.10;;;18.10;47.80;;;;;;5171169;27;45397;-63
2023/12/24 05:33:35;;;;;;;0.30;0.30;;;18.20;47.80;;;;;;5170725;27;45494;-63
2023/12/24 05:36:02;;;;;;;0.10;0.10;;;18.20;47.80;;;;;;5170401;27;45601;-63
2023/12/24 05:38:29;;;;;;;0.10;0.10;;;18.20;47.70;;;;;;5170688;27;45393;-64
2023/12/24 05:40:56;;;;;;;0.10;0.10;;;18.20;47.70;;;;;;5170366;27;45267;-64
2023/12/24 05:43:23;;;;;;;0.20;0.20;;;18.20;47.60;;;;;;5170242;27;46678;-64
2023/12/24 05:45:50;;;;;;;0.20;0.20;;;18.20;47.60;;;;;;5170325;27;45305;-64
2023/12/24 05:48:18;;;;;;;0.10;0.10;;;18.20;47.60;;;;;;5170436;27;45371;-63
2023/12/24 05:50:45;;;;;;;0.20;0.17;;;18.30;47.70;;;;;;5170764;27;45460;-63
2023/12/24 05:53:12;;;;;;;0.10;0.10;;;18.30;47.60;;;;;;5170089;27;46690;-64
2023/12/24 05:55:39;;;;;;;0.08;0.08;;;18.30;47.50;;;;;;5169983;27;45301;-63
2023/12/24 05:58:06;;;;;;;0.10;0.10;;;18.30;47.60;;;;;;5170177;27;45558;-63
2023/12/24 06:00:34;;;;;;;0.13;0.13;;;18.30;47.50;;;;;;5170375;27;45468;-63
2023/12/24 06:03:02;;;;;;;0.10;0.10;;;18.30;47.50;;;;;;5169845;27;46426;-63
2023/12/24 06:05:30;;;;;;;0.25;0.15;;;18.30;47.60;;;;;;5168635;27;45292;-64
2023/12/24 06:07:57;;;;;;;0.10;0.10;;;18.30;47.50;;;;;;5170023;27;45379;-64
2023/12/24 06:10:24;;;;;;;1.50;0.15;;;18.40;47.50;;;;;;5170401;27;45427;-63
2023/12/24 06:12:53;;;;;;;0.20;0.20;;;18.30;47.50;;;;;;5169737;27;45320;-65
2023/12/24 06:15:20;;;;;;;0.15;0.15;;;18.40;47.50;;;;;;5169855;27;45563;-64
2023/12/24 06:17:48;;;;;;;0.00;0.00;;;18.40;47.50;;;;;;5169882;27;45300;-64
2023/12/24 06:20:15;;;;;;;0.30;0.25;;;18.40;47.50;;;;;;5170150;27;45432;-65
2023/12/24 06:22:43;;;;;;;0.17;0.17;;;18.40;47.50;;;;;;5159929;27;47412;-64
2023/12/24 06:25:09;;;;;;;0.20;0.20;;;18.40;47.50;;;;;;5148628;27;45361;-65
2023/12/24 06:27:36;;;;;;;0.10;0.10;;;18.40;47.50;;;;;;5148690;27;45458;-65
2023/12/24 06:30:04;;;;;;;0.10;0.10;;;18.40;47.50;;;;;;5148774;27;45390;-65
2023/12/24 06:32:31;;;;;;;0.10;0.10;;;18.40;47.50;;;;;;5148581;27;46961;-65
2023/12/24 06:34:58;;;;;;;0.40;0.20;;;18.40;48.10;;;;;;5148288;27;45444;-65
2023/12/24 06:37:25;;;;;;;0.28;0.17;;;18.40;47.40;;;;;;5148478;27;45368;-65
2023/12/24 06:39:53;;;;;;;0.32;0.10;;;18.40;47.40;;;;;;5139037;27;45471;-64
2023/12/24 06:42:20;;;;;;;0.40;0.20;;;18.40;47.40;;;;;;5127448;27;45507;-66
2023/12/24 06:44:47;;;;;;;0.10;0.10;;;18.40;47.40;;;;;;5127518;27;45139;-66
2023/12/24 06:47:14;;;;;;;0.05;0.05;;;18.40;47.40;;;;;;5127509;27;45283;-64
2023/12/24 06:49:44;;;;;;;0.52;0.15;;;18.40;47.40;;;;;;5127777;27;45130;-64
2023/12/24 06:52:10;;;;;;;0.00;0.00;;;18.40;47.40;;;;;;5127762;27;45381;-66
2023/12/24 06:54:37;;;;;;;0.00;0.00;;;18.40;47.40;;;;;;5127273;27;45279;-65
2023/12/24 06:57:07;;;;;;;0.10;0.10;;;18.40;47.50;;;;;;5127421;27;45259;-64
2023/12/24 06:59:33;;;;;;;0.00;0.00;;;18.40;47.40;;;;;;5127580;27;45338;-65
2023/12/24 07:02:00;;;;;;;0.10;0.10;;;18.40;47.40;;;;;;5127125;27;46376;-65
2023/12/24 07:04:27;;;;;;;0.00;0.00;;;18.50;47.50;;;;;;5124632;27;45185;-64
2023/12/24 07:06:54;;;;;;;0.20;0.20;;;18.50;47.40;;;;;;5127374;27;45276;-64
2023/12/24 07:09:21;;;;;;;0.10;0.10;;;18.50;47.40;;;;;;5127569;27;45470;-65
2023/12/24 07:11:47;;;;;;;0.08;0.08;;;18.50;47.30;;;;;;5127058;27;45411;-64
2023/12/24 07:14:16;;;;;;;0.00;0.00;;;18.50;47.30;;;;;;5127112;27;45414;-64
2023/12/24 07:16:43;;;;;;;0.10;0.10;;;18.60;47.30;;;;;;5126798;27;45331;-64
2023/12/24 07:19:10;;;;;;;0.10;0.10;;;18.60;47.20;;;;;;5127116;27;45242;-65
2023/12/24 07:21:37;;;;;;;0.25;0.10;;;18.60;47.20;;;;;;5127487;27;45536;-64
2023/12/24 07:24:04;;;;;;;0.10;0.10;;;18.60;47.20;;;;;;5147658;27;45466;-64
2023/12/24 07:26:30;;;;;;;0.10;0.10;;;18.60;47.20;;;;;;5147709;27;45441;-65
2023/12/24 07:28:57;;;;;;;0.10;0.10;;;18.60;47.10;;;;;;5148035;27;45233;-65
2023/12/24 07:31:26;;;;;;;0.10;0.10;;;18.70;47.10;;;;;;5147572;27;46700;-65
2023/12/24 07:33:52;;;;;;;0.10;0.10;;;18.70;47.10;;;;;;5147574;27;45282;-65
2023/12/24 07:36:19;;;;;;;0.10;0.10;;;18.70;47.10;;;;;;5147514;27;45323;-66
2023/12/24 07:38:46;;;;;;;0.20;0.20;;;18.70;47.00;;;;;;5147762;27;45381;-64
2023/12/24 07:41:13;;;;;;;0.60;0.10;;;18.70;47.00;;;;;;5147601;27;45551;-64
2023/12/24 07:43:40;;;;;;;1.45;0.25;;;18.80;47.00;;;;;;5147671;27;45264;-64
2023/12/24 07:46:07;;;;;;;0.20;0.20;;;18.80;47.00;;;;;;5147653;27;45652;-65
2023/12/24 07:48:35;;;;;;;0.10;0.10;;;18.80;47.00;;;;;;5147645;27;45497;-64
2023/12/24 07:51:02;;;;;;;0.52;0.20;;;18.80;47.00;;;;;;5147418;27;46659;-65
2023/12/24 07:53:29;;;;;;;0.10;0.10;;;18.80;47.00;;;;;;5147631;27;45448;-64
2023/12/24 07:55:56;;;;;;;0.10;0.10;;;18.80;46.90;;;;;;5144680;27;45413;-65
2023/12/24 07:58:23;;;;;;;0.10;0.10;;;18.80;46.90;;;;;;5147672;27;45355;-65
2023/12/24 08:00:50;;;;;;;0.00;0.00;;;18.80;46.90;;;;;;5147267;27;46397;-64
2023/12/24 08:03:16;;;;;;;0.10;0.10;;;18.80;46.90;;;;;;5147236;27;45390;-65
2023/12/24 08:05:45;;;;;;;0.00;0.00;;;18.90;47.50;;;;;;5147704;27;45318;-64
2023/12/24 08:08:12;;;;;;;0.10;0.10;;;18.90;46.80;;;;;;5147808;27;45558;-64
2023/12/24 08:10:39;;;;;;;0.03;0.03;;;18.90;46.80;;;;;;5147081;27;46395;-64
2023/12/24 08:13:05;;;;;;;0.05;0.03;;;18.90;46.80;;;;;;5144641;27;45377;-65
2023/12/24 08:15:32;;;;;;;0.08;0.08;;;18.90;46.80;;;;;;5147283;27;45357;-64
2023/12/24 08:17:59;;;;;;;0.20;0.20;;;18.90;46.80;;;;;;5147428;27;45241;-65
2023/12/24 08:20:26;;;;;;;0.10;0.10;;;19.00;46.80;;;;;;5146811;27;46245;-64
2023/12/24 08:22:54;;;;;;;0.10;0.10;;;19.00;46.80;;;;;;5135754;27;45320;-64
2023/12/24 08:25:21;;;;;;;0.10;0.10;;;19.00;46.70;;;;;;5126424;27;45491;-64
2023/12/24 08:27:48;;;;;;;0.13;0.13;;;19.00;46.70;;;;;;5127019;27;45321;-64
2023/12/24 08:30:15;;;;;;;0.08;0.08;;;19.00;46.70;;;;;;5129662;27;46519;-64
2023/12/24 08:32:42;;;;;;;0.10;0.10;;;19.00;46.70;;;;;;5130123;27;45368;-65
2023/12/24 08:35:11;;;;;;;0.10;0.10;;;19.00;46.70;;;;;;5129820;27;45396;-65
2023/12/24 08:37:38;;;;;;;0.70;0.22;;;19.00;46.70;;;;;;5129892;27;45292;-64
2023/12/24 08:40:07;;;;;;;0.10;0.10;;;19.00;46.60;;;;;;5128753;27;46544;-64
2023/12/24 08:42:34;;;;;;;0.10;0.10;;;19.00;46.60;;;;;;5129357;27;45393;-64
2023/12/24 08:45:01;;;;;;;0.47;0.20;;;19.00;46.60;;;;;;5129658;27;45311;-64
2023/12/24 08:47:28;;;;;;;0.20;0.20;;;19.10;46.60;;;;;;5129742;27;45327;-65
2023/12/24 08:49:56;;;;;;;0.20;0.20;;;19.10;46.60;;;;;;5128978;27;46461;-64
2023/12/24 08:52:24;;;;;;;0.40;0.20;;;19.10;46.60;;;;;;5129262;27;45357;-64
2023/12/24 08:54:51;;;;;;;0.80;0.20;;;19.10;46.60;;;;;;5129401;27;45394;-65
2023/12/24 08:57:19;;;;;;;0.25;0.25;;;19.10;46.50;;;;;;5129502;27;45320;-64
2023/12/24 08:59:46;;;;;;;0.20;0.20;;;19.10;46.60;;;;;;5128835;27;46345;-64
2023/12/24 09:02:13;;;;;;;0.35;0.20;;;19.10;46.60;;;;;;5129195;27;45374;-64
2023/12/24 09:04:40;;;;;;;0.10;0.10;;;19.10;46.50;;;;;;5129047;27;45332;-64
2023/12/24 09:07:07;;;;;;;0.13;0.13;;;19.10;46.50;;;;;;5129296;27;45314;-64
2023/12/24 09:09:34;;;;;;;0.15;0.15;;;19.10;46.50;;;;;;5129113;27;45433;-64
2023/12/24 09:12:01;;;;;;;0.10;0.10;;;19.10;46.50;;;;;;5128987;27;45307;-64
2023/12/24 09:14:29;;;;;;;0.68;0.22;;;19.10;46.50;;;;;;5129129;27;45424;-64
2023/12/24 09:16:56;;;;;;;0.25;0.20;;;19.10;46.50;;;;;;5129147;27;45378;-64
2023/12/24 09:19:22;;;;;;;0.25;0.25;;;19.10;46.50;;;;;;5128746;27;46385;-64
2023/12/24 09:21:49;;;;;;;0.30;0.30;;;19.20;46.50;;;;;;5130961;27;45321;-65
2023/12/24 09:24:16;;;;;;;0.00;0.00;;;19.20;47.00;;;;;;5149691;27;45332;-64
2023/12/24 09:26:43;;;;;;;0.28;0.28;;;19.20;46.40;;;;;;5150064;27;45375;-65
2023/12/24 09:29:11;;;;;;;0.20;0.20;;;19.20;46.40;;;;;;5149761;27;47733;-65
2023/12/24 09:31:40;;;;;;;0.25;0.25;;;19.20;46.50;;;;;;5149028;27;45321;-64
2023/12/24 09:34:07;;;;;;;0.10;0.10;;;19.20;46.50;;;;;;5149690;27;45239;-65
2023/12/24 09:36:34;;;;;;;0.20;0.20;;;19.20;46.40;;;;;;5149482;27;45491;-65
2023/12/24 09:39:01;;;;;;;1.38;0.10;;;19.20;46.40;;;;;;5151439;27;45504;-64
2023/12/24 09:41:28;;;;;;;0.20;0.20;;;19.20;46.40;;;;;;5170629;27;45256;-64
2023/12/24 09:43:55;;;;;;;1.38;0.20;;;19.20;46.40;;;;;;5170685;27;45325;-64
2023/12/24 09:46:21;;;;;;;0.20;0.20;;;19.30;46.40;;;;;;5170480;27;45402;-64
2023/12/24 09:48:50;;;;;;;0.10;0.10;;;19.20;46.40;;;;;;5170159;27;45488;-64
2023/12/24 09:51:18;;;;;;;0.20;0.20;;;19.30;46.40;;;;;;5170255;27;45315;-64
2023/12/24 09:53:46;;;;;;;0.20;0.20;;;19.30;46.40;;;;;;5170571;27;45316;-64
2023/12/24 09:56:13;;;;;;;0.20;0.20;;;19.30;46.40;;;;;;5170875;27;45254;-64
2023/12/24 09:58:41;;;;;;;1.48;0.25;;;19.30;46.40;;;;;;5170029;27;45482;-64
2023/12/24 10:01:08;;;;;;;1.20;0.20;;;19.30;46.40;;;;;;5170260;27;45326;-64
2023/12/24 10:03:35;;;;;;;0.30;0.30;;;19.30;46.40;;;;;;5170255;27;45227;-64
2023/12/24 10:06:04;;;;;;;0.20;0.20;;;19.30;46.40;;;;;;5170187;27;45405;-64
2023/12/24 10:08:31;;;;;;;0.20;0.20;;;19.30;46.30;;;;;;5169950;27;46504;-64
2023/12/24 10:10:58;;;;;;;0.20;0.20;;;19.30;46.30;;;;;;5170195;27;45311;-64
2023/12/24 10:13:25;;;;;;;0.10;0.10;;;19.30;46.40;;;;;;5170093;27;45343;-64
2023/12/24 10:16:05;;;;;;;0.28;0.28;;;19.30;46.30;;;;;;5170029;27;45394;-64
2023/12/24 10:18:32;;;;;;;0.10;0.10;;;19.30;46.30;;;;;;5169829;27;45512;-64
2023/12/24 10:21:05;;;;;;;0.20;0.20;;;19.40;46.30;;;;;;5169936;27;45263;-64
2023/12/24 10:23:32;;;;;;;0.30;0.30;;;19.40;46.30;;;;;;5152822;27;45491;-64
2023/12/24 10:26:03;;;;;;;0.20;0.20;;;19.40;46.40;;;;;;5148898;27;45539;-64
2023/12/24 10:28:30;;;;;;;0.20;0.20;;;19.30;46.30;;;;;;5148748;27;46627;-64
2023/12/24 10:31:05;;;;;;;0.73;0.20;;;19.40;46.30;;;;;;5148763;27;45364;-64
2023/12/24 10:33:32;;;;;;;0.10;0.10;;;19.40;46.90;;;;;;5146086;27;45318;-65
2023/12/24 10:35:59;;;;;;;0.40;0.28;;;19.40;46.30;;;;;;5148870;27;45456;-64
2023/12/24 10:38:28;;;;;;;0.00;0.00;;;19.40;46.30;;;;;;5148650;27;45374;-65
2023/12/24 10:40:55;;;;;;;0.20;0.13;;;19.40;46.30;;;;;;5148028;27;45388;-64
2023/12/24 10:43:22;;;;;;;0.20;0.20;;;19.40;46.30;;;;;;5148543;27;45499;-64
2023/12/24 10:45:48;;;;;;;0.20;0.20;;;19.40;46.30;;;;;;5148619;27;45357;-64
2023/12/24 10:48:15;;;;;;;0.13;0.13;;;19.40;46.20;;;;;;5148533;27;45570;-64
2023/12/24 10:50:43;;;;;;;1.45;0.20;;;19.40;46.20;;;;;;5162222;27;45263;-64
2023/12/24 10:53:10;;;;;;;0.20;0.20;;;19.40;46.20;;;;;;5169575;27;45304;-64
2023/12/24 10:55:38;;;;;;;0.20;0.20;;;19.40;46.20;;;;;;5169582;27;45487;-65
2023/12/24 10:58:07;;;;;;;0.28;0.28;;;19.40;46.20;;;;;;5169204;27;45180;-64
2023/12/24 11:00:34;;;;;;;0.20;0.20;;;19.50;46.30;;;;;;5169229;27;45375;-64
2023/12/24 11:03:01;;;;;;;0.40;0.40;;;19.50;46.40;;;;;;5169092;27;45482;-65
2023/12/24 11:05:50;;;;;;;0.30;0.28;;;19.50;46.20;;;;;;5169358;27;45378;-65
2023/12/24 11:08:28;;;;;;;0.13;0.10;;;19.50;46.20;;;;;;5168992;27;45288;-64
2023/12/24 11:10:57;;;;;;;0.28;0.28;;;19.50;46.20;;;;;;5168905;27;45377;-64
2023/12/24 11:13:45;;;;;;;0.10;0.10;;;19.50;46.20;;;;;;5169200;27;45415;-64
2023/12/24 11:16:12;;;;;;;0.20;0.20;;;19.50;46.20;;;;;;5169075;27;45468;-64
2023/12/24 11:18:43;;;;;;;0.17;0.10;;;19.50;46.20;;;;;;5168846;27;46364;-64
2023/12/24 11:21:11;;;;;;;0.25;0.17;;;19.50;46.20;;;;;;5168933;27;45105;-64
2023/12/24 11:23:38;;;;;;;0.13;0.13;;;19.50;46.20;;;;;;5151062;27;45263;-64
2023/12/24 11:26:31;;;;;;;0.25;0.25;;;19.50;46.20;;;;;;5147997;27;45415;-65
2023/12/24 11:28:58;;;;;;;0.20;0.20;;;19.50;46.30;;;;;;5147861;27;46658;-64
2023/12/24 11:31:25;;;;;;;0.20;0.20;;;19.50;46.30;;;;;;5147860;27;45357;-64
2023/12/24 11:33:54;;;;;;;0.20;0.20;;;19.50;46.30;;;;;;5148084;27;45478;-64
2023/12/24 11:36:21;;;;;;;0.25;0.25;;;19.50;46.20;;;;;;5147852;27;45536;-64
2023/12/24 11:38:48;;;;;;;0.20;0.20;;;19.50;46.20;;;;;;5147303;27;46920;-64
2023/12/24 11:41:15;;;;;;;0.10;0.10;;;19.50;46.20;;;;;;5147598;27;45380;-64
2023/12/24 11:43:52;;;;;;;0.43;0.17;;;19.50;46.20;;;;;;5147561;27;45314;-64
2023/12/24 11:46:19;;;;;;;0.20;0.20;;;19.50;46.30;;;;;;5147710;27;45295;-64
2023/12/24 11:48:46;;;;;;;0.30;0.30;;;19.50;46.20;;;;;;5147411;27;45561;-64
2023/12/24 11:51:13;;;;;;;0.40;0.40;;;19.50;46.20;;;;;;5166545;27;45319;-64
2023/12/24 11:53:40;;;;;;;0.20;0.20;;;19.50;46.20;;;;;;5168416;27;45361;-64
2023/12/24 11:56:09;;;;;;;0.20;0.20;;;19.50;46.20;;;;;;5168563;27;45413;-64
2023/12/24 11:58:36;;;;;;;0.20;0.20;;;19.50;46.10;;;;;;5168400;27;46632;-66
2023/12/24 12:01:04;;;;;;;0.32;0.20;;;19.50;46.20;;;;;;5168492;27;45251;-64
2023/12/24 12:03:31;;;;;;;0.20;0.20;;;19.60;46.20;;;;;;5170127;27;45373;-64
2023/12/24 12:05:58;;;;;;;0.20;0.20;;;19.60;46.20;;;;;;5172275;27;45521;-64
2023/12/24 12:08:25;;;;;;;0.30;0.22;;;19.60;46.20;;;;;;5171945;27;46552;-64
2023/12/24 12:10:53;;;;;;;0.30;0.30;;;19.60;46.20;;;;;;5172206;27;45249;-64
2023/12/24 12:13:20;;;;;;;0.20;0.20;;;19.60;46.20;;;;;;5172395;27;45312;-64
2023/12/24 12:15:47;;;;;;;0.30;0.30;;;19.60;46.20;;;;;;5172283;27;45392;-65
2023/12/24 12:18:16;;;;;;;0.20;0.20;;;19.60;46.20;;;;;;5172029;27;47512;-64
2023/12/24 12:20:44;;;;;;;0.10;0.10;;;19.60;46.20;;;;;;5171930;27;45278;-64
2023/12/24 12:23:10;;;;;;;0.20;0.20;;;19.60;46.20;;;;;;5158068;27;45413;-64
2023/12/24 12:25:37;;;;;;;0.20;0.20;;;19.60;46.20;;;;;;5148142;27;45428;-64
2023/12/24 12:28:05;;;;;;;0.40;0.40;;;19.60;46.20;;;;;;5150740;27;45571;-64
2023/12/24 12:30:31;;;;;;;0.20;0.20;;;19.60;46.20;;;;;;5150708;27;45263;-64
2023/12/24 12:32:58;;;;;;;0.30;0.30;;;19.60;46.20;;;;;;5151000;27;45179;-64
2023/12/24 12:35:26;;;;;;;0.25;0.25;;;19.60;46.20;;;;;;5150678;27;45398;-65
2023/12/24 12:37:53;;;;;;;0.25;0.25;;;19.60;46.20;;;;;;5150418;27;46370;-64
2023/12/24 12:40:20;;;;;;;0.10;0.10;;;19.60;46.20;;;;;;5150109;27;45203;-64
2023/12/24 12:42:47;;;;;;;0.20;0.20;;;19.60;46.20;;;;;;5150649;27;45187;-64
2023/12/24 12:45:14;;;;;;;0.15;0.15;;;19.60;46.20;;;;;;5150646;27;45321;-64
2023/12/24 12:47:41;;;;;;;0.40;0.10;;;19.60;46.20;;;;;;5150249;27;45372;-64
2023/12/24 12:50:08;;;;;;;0.70;0.28;;;19.60;46.10;;;;;;5159976;27;45355;-64